sensor_id;sensor_type;location;lat;lon;timestamp;P1;durP1;ratioP1;P2;durP2;ratioP2
49826;SDS011;35715;51.570;6.036;2022-09-12T00:01:22;10.50;;;9.57;;
49826;SDS011;35715;51.570;6.036;2022-09-12T00:03:56;12.57;;;10.00;;
49826;SDS011;35715;51.570;6.036;2022-09-12T00:06:28;10.80;;;9.70;;
49826;SDS011;35715;51.570;6.036;2022-09-12T00:08:56;13.32;;;9.40;;
49826;SDS011;35715;51.570;6.036;2022-09-12T00:11:34;14.32;;;11.13;;
49826;SDS011;35715;51.570;6.036;2022-09-12T00:14:01;11.90;;;9.82;;
49826;SDS011;35715;51.570;6.036;2022-09-12T00:16:28;11.05;;;10.02;;
49826;SDS011;35715;51.570;6.036;2022-09-12T00:18:55;12.55;;;11.45;;
49826;SDS011;35715;51.570;6.036;2022-09-12T00:21:33;10.80;;;9.80;;
49826;SDS011;35715;51.570;6.036;2022-09-12T00:24:01;12.80;;;11.40;;
49826;SDS011;35715;51.570;6.036;2022-09-12T00:26:26;14.40;;;13.20;;
49826;SDS011;35715;51.570;6.036;2022-09-12T00:28:52;17.30;;;12.32;;
49826;SDS011;35715;51.570;6.036;2022-09-12T00:31:20;16.75;;;14.57;;
49826;SDS011;35715;51.570;6.036;2022-09-12T00:33:50;19.20;;;16.35;;
49826;SDS011;35715;51.570;6.036;2022-09-12T00:36:18;20.27;;;17.30;;
49826;SDS011;35715;51.570;6.036;2022-09-12T00:38:46;16.13;;;14.73;;
49826;SDS011;35715;51.570;6.036;2022-09-12T00:43:45;18.60;;;15.55;;
49826;SDS011;35715;51.570;6.036;2022-09-12T00:46:14;14.30;;;13.02;;
49826;SDS011;35715;51.570;6.036;2022-09-12T00:48:55;13.88;;;12.57;;
49826;SDS011;35715;51.570;6.036;2022-09-12T00:51:27;16.15;;;13.20;;
49826;SDS011;35715;51.570;6.036;2022-09-12T00:53:56;14.32;;;11.98;;
49826;SDS011;35715;51.570;6.036;2022-09-12T00:56:23;14.95;;;13.43;;
49826;SDS011;35715;51.570;6.036;2022-09-12T00:58:56;25.85;;;12.82;;
49826;SDS011;35715;51.570;6.036;2022-09-12T01:01:34;15.02;;;13.60;;
49826;SDS011;35715;51.570;6.036;2022-09-12T01:04:00;15.07;;;13.77;;
49826;SDS011;35715;51.570;6.036;2022-09-12T01:06:27;15.75;;;13.85;;
49826;SDS011;35715;51.570;6.036;2022-09-12T01:08:59;13.73;;;12.30;;
49826;SDS011;35715;51.570;6.036;2022-09-12T01:11:30;13.57;;;12.38;;
49826;SDS011;35715;51.570;6.036;2022-09-12T01:13:58;12.70;;;11.63;;
49826;SDS011;35715;51.570;6.036;2022-09-12T01:16:24;15.48;;;12.88;;
49826;SDS011;35715;51.570;6.036;2022-09-12T01:24:50;13.20;;;11.90;;
49826;SDS011;35715;51.570;6.036;2022-09-12T01:39:03;19.88;;;15.00;;
49826;SDS011;35715;51.570;6.036;2022-09-12T01:44:48;14.25;;;12.85;;
49826;SDS011;35715;51.570;6.036;2022-09-12T01:47:24;13.25;;;11.95;;
49826;SDS011;35715;51.570;6.036;2022-09-12T01:53:07;20.17;;;17.77;;
49826;SDS011;35715;51.570;6.036;2022-09-12T01:55:41;31.52;;;26.83;;
49826;SDS011;35715;51.570;6.036;2022-09-12T02:01:00;35.88;;;27.58;;
49826;SDS011;35715;51.570;6.036;2022-09-12T02:03:27;34.65;;;29.15;;
49826;SDS011;35715;51.570;6.036;2022-09-12T02:06:05;44.47;;;35.08;;
49826;SDS011;35715;51.570;6.036;2022-09-12T02:08:42;41.80;;;35.47;;
49826;SDS011;35715;51.570;6.036;2022-09-12T02:11:14;41.85;;;33.58;;
49826;SDS011;35715;51.570;6.036;2022-09-12T02:13:43;43.13;;;35.63;;
49826;SDS011;35715;51.570;6.036;2022-09-12T02:16:50;46.58;;;34.22;;
49826;SDS011;35715;51.570;6.036;2022-09-12T02:19:18;41.53;;;33.13;;
49826;SDS011;35715;51.570;6.036;2022-09-12T02:21:49;35.42;;;28.67;;
49826;SDS011;35715;51.570;6.036;2022-09-12T02:24:17;41.25;;;31.02;;
49826;SDS011;35715;51.570;6.036;2022-09-12T02:26:48;36.85;;;30.45;;
49826;SDS011;35715;51.570;6.036;2022-09-12T02:29:16;37.47;;;32.78;;
49826;SDS011;35715;51.570;6.036;2022-09-12T02:31:46;38.78;;;33.13;;
49826;SDS011;35715;51.570;6.036;2022-09-12T02:37:31;50.30;;;39.42;;
49826;SDS011;35715;51.570;6.036;2022-09-12T02:42:42;52.85;;;38.70;;
49826;SDS011;35715;51.570;6.036;2022-09-12T02:45:07;52.67;;;38.95;;
49826;SDS011;35715;51.570;6.036;2022-09-12T02:47:41;49.42;;;38.22;;
49826;SDS011;35715;51.570;6.036;2022-09-12T02:50:32;49.38;;;37.55;;
49826;SDS011;35715;51.570;6.036;2022-09-12T02:52:58;43.28;;;33.80;;
49826;SDS011;35715;51.570;6.036;2022-09-12T02:55:28;47.22;;;35.88;;
49826;SDS011;35715;51.570;6.036;2022-09-12T02:57:57;45.63;;;36.28;;
49826;SDS011;35715;51.570;6.036;2022-09-12T03:00:25;49.10;;;39.13;;
49826;SDS011;35715;51.570;6.036;2022-09-12T03:05:49;48.10;;;37.00;;
49826;SDS011;35715;51.570;6.036;2022-09-12T03:14:01;48.08;;;35.80;;
49826;SDS011;35715;51.570;6.036;2022-09-12T03:27:55;38.67;;;31.40;;
49826;SDS011;35715;51.570;6.036;2022-09-12T03:30:35;44.30;;;33.10;;
49826;SDS011;35715;51.570;6.036;2022-09-12T03:33:05;36.72;;;30.50;;
49826;SDS011;35715;51.570;6.036;2022-09-12T03:35:30;36.58;;;30.88;;
49826;SDS011;35715;51.570;6.036;2022-09-12T03:37:56;41.90;;;30.83;;
49826;SDS011;35715;51.570;6.036;2022-09-12T03:45:16;42.92;;;31.42;;
49826;SDS011;35715;51.570;6.036;2022-09-12T03:47:42;45.10;;;35.55;;
49826;SDS011;35715;51.570;6.036;2022-09-12T03:50:20;54.22;;;37.63;;
49826;SDS011;35715;51.570;6.036;2022-09-12T03:52:46;59.53;;;35.08;;
49826;SDS011;35715;51.570;6.036;2022-09-12T03:55:11;49.63;;;33.80;;
49826;SDS011;35715;51.570;6.036;2022-09-12T03:57:37;51.08;;;36.95;;
49826;SDS011;35715;51.570;6.036;2022-09-12T04:00:19;57.88;;;37.70;;
49826;SDS011;35715;51.570;6.036;2022-09-12T04:02:44;56.63;;;38.20;;
49826;SDS011;35715;51.570;6.036;2022-09-12T04:05:09;55.15;;;36.88;;
49826;SDS011;35715;51.570;6.036;2022-09-12T04:07:35;59.03;;;36.65;;
49826;SDS011;35715;51.570;6.036;2022-09-12T04:10:10;50.10;;;35.33;;
49826;SDS011;35715;51.570;6.036;2022-09-12T04:12:36;49.67;;;35.58;;
49826;SDS011;35715;51.570;6.036;2022-09-12T04:15:03;48.35;;;35.63;;
49826;SDS011;35715;51.570;6.036;2022-09-12T04:17:30;47.28;;;33.63;;
49826;SDS011;35715;51.570;6.036;2022-09-12T04:19:55;37.50;;;30.08;;
49826;SDS011;35715;51.570;6.036;2022-09-12T04:22:20;48.85;;;33.35;;
49826;SDS011;35715;51.570;6.036;2022-09-12T04:24:46;49.88;;;32.28;;
49826;SDS011;35715;51.570;6.036;2022-09-12T04:27:11;44.65;;;30.50;;
49826;SDS011;35715;51.570;6.036;2022-09-12T04:29:46;38.60;;;27.65;;
49826;SDS011;35715;51.570;6.036;2022-09-12T04:32:11;40.03;;;31.33;;
49826;SDS011;35715;51.570;6.036;2022-09-12T04:34:36;45.08;;;34.25;;
49826;SDS011;35715;51.570;6.036;2022-09-12T04:37:03;44.72;;;32.60;;
49826;SDS011;35715;51.570;6.036;2022-09-12T04:42:07;47.28;;;34.10;;
49826;SDS011;35715;51.570;6.036;2022-09-12T04:44:32;48.03;;;33.00;;
49826;SDS011;35715;51.570;6.036;2022-09-12T04:46:57;49.08;;;35.83;;
49826;SDS011;35715;51.570;6.036;2022-09-12T04:51:52;53.85;;;34.13;;
49826;SDS011;35715;51.570;6.036;2022-09-12T04:54:19;55.00;;;37.42;;
49826;SDS011;35715;51.570;6.036;2022-09-12T04:56:45;48.17;;;34.58;;
49826;SDS011;35715;51.570;6.036;2022-09-12T04:59:15;47.35;;;33.15;;
49826;SDS011;35715;51.570;6.036;2022-09-12T05:01:42;46.88;;;34.20;;
49826;SDS011;35715;51.570;6.036;2022-09-12T05:04:11;53.55;;;35.80;;
49826;SDS011;35715;51.570;6.036;2022-09-12T05:06:37;56.25;;;36.08;;
49826;SDS011;35715;51.570;6.036;2022-09-12T05:09:04;56.05;;;35.47;;
49826;SDS011;35715;51.570;6.036;2022-09-12T05:11:38;52.05;;;33.10;;
49826;SDS011;35715;51.570;6.036;2022-09-12T05:14:05;52.45;;;34.58;;
49826;SDS011;35715;51.570;6.036;2022-09-12T05:16:32;58.85;;;35.25;;
49826;SDS011;35715;51.570;6.036;2022-09-12T05:18:57;44.95;;;32.75;;
49826;SDS011;35715;51.570;6.036;2022-09-12T05:21:23;51.63;;;33.65;;
49826;SDS011;35715;51.570;6.036;2022-09-12T05:23:50;51.25;;;34.50;;
49826;SDS011;35715;51.570;6.036;2022-09-12T05:26:17;61.13;;;34.70;;
49826;SDS011;35715;51.570;6.036;2022-09-12T05:28:44;56.50;;;37.30;;
49826;SDS011;35715;51.570;6.036;2022-09-12T05:31:22;50.30;;;34.03;;
49826;SDS011;35715;51.570;6.036;2022-09-12T05:33:49;54.10;;;33.08;;
49826;SDS011;35715;51.570;6.036;2022-09-12T05:36:16;52.10;;;33.83;;
49826;SDS011;35715;51.570;6.036;2022-09-12T05:38:43;44.92;;;32.92;;
49826;SDS011;35715;51.570;6.036;2022-09-12T05:43:55;55.65;;;34.35;;
49826;SDS011;35715;51.570;6.036;2022-09-12T05:46:24;52.85;;;36.70;;
49826;SDS011;35715;51.570;6.036;2022-09-12T05:48:51;45.63;;;32.40;;
49826;SDS011;35715;51.570;6.036;2022-09-12T05:51:20;40.72;;;29.13;;
49826;SDS011;35715;51.570;6.036;2022-09-12T05:53:49;49.70;;;31.43;;
49826;SDS011;35715;51.570;6.036;2022-09-12T05:56:18;51.45;;;34.42;;
49826;SDS011;35715;51.570;6.036;2022-09-12T05:58:46;49.17;;;34.38;;
49826;SDS011;35715;51.570;6.036;2022-09-12T06:01:18;47.97;;;34.58;;
49826;SDS011;35715;51.570;6.036;2022-09-12T06:03:48;50.72;;;34.63;;
49826;SDS011;35715;51.570;6.036;2022-09-12T06:06:16;44.00;;;31.20;;
49826;SDS011;35715;51.570;6.036;2022-09-12T06:08:43;54.55;;;34.53;;
49826;SDS011;35715;51.570;6.036;2022-09-12T06:11:12;45.38;;;33.45;;
49826;SDS011;35715;51.570;6.036;2022-09-12T06:13:39;53.17;;;35.05;;
49826;SDS011;35715;51.570;6.036;2022-09-12T06:16:10;50.47;;;35.10;;
49826;SDS011;35715;51.570;6.036;2022-09-12T06:18:37;48.78;;;33.90;;
49826;SDS011;35715;51.570;6.036;2022-09-12T06:21:04;48.95;;;34.58;;
49826;SDS011;35715;51.570;6.036;2022-09-12T06:23:31;53.42;;;36.08;;
49826;SDS011;35715;51.570;6.036;2022-09-12T06:25:57;52.47;;;35.88;;
49826;SDS011;35715;51.570;6.036;2022-09-12T06:28:23;53.53;;;36.63;;
49826;SDS011;35715;51.570;6.036;2022-09-12T06:33:52;46.35;;;34.60;;
49826;SDS011;35715;51.570;6.036;2022-09-12T06:36:20;54.80;;;37.85;;
49826;SDS011;35715;51.570;6.036;2022-09-12T06:38:48;52.83;;;34.42;;
49826;SDS011;35715;51.570;6.036;2022-09-12T06:44:08;46.03;;;34.73;;
49826;SDS011;35715;51.570;6.036;2022-09-12T06:46:40;46.75;;;35.08;;
49826;SDS011;35715;51.570;6.036;2022-09-12T06:49:05;46.30;;;35.00;;
49826;SDS011;35715;51.570;6.036;2022-09-12T06:51:44;53.35;;;34.90;;
49826;SDS011;35715;51.570;6.036;2022-09-12T06:54:13;47.72;;;33.50;;
49826;SDS011;35715;51.570;6.036;2022-09-12T06:56:39;45.97;;;32.40;;
49826;SDS011;35715;51.570;6.036;2022-09-12T06:59:05;44.33;;;32.50;;
49826;SDS011;35715;51.570;6.036;2022-09-12T07:01:30;46.22;;;34.08;;
49826;SDS011;35715;51.570;6.036;2022-09-12T07:03:57;47.58;;;33.88;;
49826;SDS011;35715;51.570;6.036;2022-09-12T07:06:28;45.97;;;32.78;;
49826;SDS011;35715;51.570;6.036;2022-09-12T07:08:59;49.65;;;34.50;;
49826;SDS011;35715;51.570;6.036;2022-09-12T07:11:27;42.90;;;33.13;;
49826;SDS011;35715;51.570;6.036;2022-09-12T07:13:56;43.20;;;32.88;;
49826;SDS011;35715;51.570;6.036;2022-09-12T07:16:22;49.88;;;34.08;;
49826;SDS011;35715;51.570;6.036;2022-09-12T07:18:51;43.15;;;32.03;;
49826;SDS011;35715;51.570;6.036;2022-09-12T07:21:19;49.63;;;33.10;;
49826;SDS011;35715;51.570;6.036;2022-09-12T07:23:45;47.13;;;31.95;;
49826;SDS011;35715;51.570;6.036;2022-09-12T07:26:11;49.40;;;33.88;;
49826;SDS011;35715;51.570;6.036;2022-09-12T07:28:37;50.70;;;33.30;;
49826;SDS011;35715;51.570;6.036;2022-09-12T07:31:14;41.17;;;34.30;;
49826;SDS011;35715;51.570;6.036;2022-09-12T07:33:41;41.20;;;30.05;;
49826;SDS011;35715;51.570;6.036;2022-09-12T07:36:11;33.03;;;29.45;;
49826;SDS011;35715;51.570;6.036;2022-09-12T07:38:38;37.42;;;29.52;;
49826;SDS011;35715;51.570;6.036;2022-09-12T07:41:21;41.70;;;32.97;;
49826;SDS011;35715;51.570;6.036;2022-09-12T07:43:52;35.20;;;29.00;;
49826;SDS011;35715;51.570;6.036;2022-09-12T07:46:20;33.60;;;29.85;;
49826;SDS011;35715;51.570;6.036;2022-09-12T07:48:53;31.55;;;28.30;;
49826;SDS011;35715;51.570;6.036;2022-09-12T07:51:21;47.72;;;29.30;;
49826;SDS011;35715;51.570;6.036;2022-09-12T07:53:47;40.78;;;31.17;;
49826;SDS011;35715;51.570;6.036;2022-09-12T07:56:13;35.63;;;26.88;;
49826;SDS011;35715;51.570;6.036;2022-09-12T07:58:39;39.03;;;29.30;;
49826;SDS011;35715;51.570;6.036;2022-09-12T08:01:10;40.50;;;31.92;;
49826;SDS011;35715;51.570;6.036;2022-09-12T08:03:41;35.00;;;27.98;;
49826;SDS011;35715;51.570;6.036;2022-09-12T08:06:12;38.72;;;29.75;;
49826;SDS011;35715;51.570;6.036;2022-09-12T08:08:39;32.83;;;27.40;;
49826;SDS011;35715;51.570;6.036;2022-09-12T08:11:19;32.55;;;28.15;;
49826;SDS011;35715;51.570;6.036;2022-09-12T08:13:46;31.88;;;28.23;;
49826;SDS011;35715;51.570;6.036;2022-09-12T08:16:13;32.70;;;27.45;;
49826;SDS011;35715;51.570;6.036;2022-09-12T08:18:41;34.92;;;25.00;;
49826;SDS011;35715;51.570;6.036;2022-09-12T08:23:55;27.48;;;24.55;;
49826;SDS011;35715;51.570;6.036;2022-09-12T08:26:22;32.92;;;25.20;;
49826;SDS011;35715;51.570;6.036;2022-09-12T08:28:49;37.25;;;28.10;;
49826;SDS011;35715;51.570;6.036;2022-09-12T08:31:16;33.72;;;27.80;;
49826;SDS011;35715;51.570;6.036;2022-09-12T08:33:43;69.32;;;28.40;;
49826;SDS011;35715;51.570;6.036;2022-09-12T08:36:09;26.88;;;24.35;;
49826;SDS011;35715;51.570;6.036;2022-09-12T08:38:40;27.27;;;24.48;;
49826;SDS011;35715;51.570;6.036;2022-09-12T08:41:20;28.25;;;25.15;;
49826;SDS011;35715;51.570;6.036;2022-09-12T08:43:56;34.35;;;26.48;;
49826;SDS011;35715;51.570;6.036;2022-09-12T08:49:20;26.42;;;23.15;;
49826;SDS011;35715;51.570;6.036;2022-09-12T08:51:51;27.70;;;24.90;;
49826;SDS011;35715;51.570;6.036;2022-09-12T08:54:22;27.13;;;23.52;;
49826;SDS011;35715;51.570;6.036;2022-09-12T08:56:51;26.10;;;22.33;;
49826;SDS011;35715;51.570;6.036;2022-09-12T08:59:22;25.27;;;23.02;;
49826;SDS011;35715;51.570;6.036;2022-09-12T09:01:49;36.05;;;25.45;;
49826;SDS011;35715;51.570;6.036;2022-09-12T09:16:32;24.35;;;22.25;;
49826;SDS011;35715;51.570;6.036;2022-09-12T09:19:02;28.35;;;25.60;;
49826;SDS011;35715;51.570;6.036;2022-09-12T09:24:17;22.42;;;20.27;;
49826;SDS011;35715;51.570;6.036;2022-09-12T09:27:09;19.98;;;18.13;;
49826;SDS011;35715;51.570;6.036;2022-09-12T09:29:53;26.67;;;19.98;;
49826;SDS011;35715;51.570;6.036;2022-09-12T09:32:37;19.80;;;17.80;;
49826;SDS011;35715;51.570;6.036;2022-09-12T09:35:19;20.42;;;18.20;;
49826;SDS011;35715;51.570;6.036;2022-09-12T09:40:26;20.60;;;18.50;;
49826;SDS011;35715;51.570;6.036;2022-09-12T09:43:06;20.55;;;17.25;;
49826;SDS011;35715;51.570;6.036;2022-09-12T09:45:42;18.05;;;16.35;;
49826;SDS011;35715;51.570;6.036;2022-09-12T09:50:55;20.27;;;18.25;;
49826;SDS011;35715;51.570;6.036;2022-09-12T09:56:34;16.52;;;14.93;;
49826;SDS011;35715;51.570;6.036;2022-09-12T10:01:50;17.17;;;15.40;;
49826;SDS011;35715;51.570;6.036;2022-09-12T10:04:53;16.17;;;14.55;;
49826;SDS011;35715;51.570;6.036;2022-09-12T10:07:18;14.43;;;13.13;;
49826;SDS011;35715;51.570;6.036;2022-09-12T10:12:42;17.42;;;12.80;;
49826;SDS011;35715;51.570;6.036;2022-09-12T10:15:15;20.10;;;11.77;;
49826;SDS011;35715;51.570;6.036;2022-09-12T10:17:45;10.95;;;9.85;;
49826;SDS011;35715;51.570;6.036;2022-09-12T10:20:31;12.18;;;9.35;;
49826;SDS011;35715;51.570;6.036;2022-09-12T10:25:46;13.45;;;11.30;;
49826;SDS011;35715;51.570;6.036;2022-09-12T10:28:21;11.80;;;10.52;;
49826;SDS011;35715;51.570;6.036;2022-09-12T10:30:55;10.05;;;8.15;;
49826;SDS011;35715;51.570;6.036;2022-09-12T10:33:26;10.60;;;8.80;;
49826;SDS011;35715;51.570;6.036;2022-09-12T10:35:52;9.18;;;8.23;;
49826;SDS011;35715;51.570;6.036;2022-09-12T10:41:07;13.55;;;8.73;;
49826;SDS011;35715;51.570;6.036;2022-09-12T10:48:38;18.13;;;11.70;;
49826;SDS011;35715;51.570;6.036;2022-09-12T10:51:04;10.38;;;9.40;;
49826;SDS011;35715;51.570;6.036;2022-09-12T10:53:42;11.25;;;9.90;;
49826;SDS011;35715;51.570;6.036;2022-09-12T10:56:20;13.35;;;8.85;;
49826;SDS011;35715;51.570;6.036;2022-09-12T11:07:37;6.95;;;6.35;;
49826;SDS011;35715;51.570;6.036;2022-09-12T11:10:21;12.70;;;8.27;;
49826;SDS011;35715;51.570;6.036;2022-09-12T11:24:02;6.97;;;6.38;;
49826;SDS011;35715;51.570;6.036;2022-09-12T11:32:28;7.38;;;5.55;;
49826;SDS011;35715;51.570;6.036;2022-09-12T11:35:00;6.40;;;5.90;;
49826;SDS011;35715;51.570;6.036;2022-09-12T11:37:42;6.90;;;5.57;;
49826;SDS011;35715;51.570;6.036;2022-09-12T11:40:36;5.95;;;5.28;;
49826;SDS011;35715;51.570;6.036;2022-09-12T11:43:21;4.47;;;4.10;;
49826;SDS011;35715;51.570;6.036;2022-09-12T11:46:24;4.60;;;4.20;;
49826;SDS011;35715;51.570;6.036;2022-09-12T11:49:00;6.35;;;3.60;;
49826;SDS011;35715;51.570;6.036;2022-09-12T11:57:22;6.35;;;5.13;;
49826;SDS011;35715;51.570;6.036;2022-09-12T12:02:47;4.50;;;3.80;;
49826;SDS011;35715;51.570;6.036;2022-09-12T12:05:23;5.93;;;4.38;;
49826;SDS011;35715;51.570;6.036;2022-09-12T12:10:23;5.63;;;3.90;;
49826;SDS011;35715;51.570;6.036;2022-09-12T12:12:57;3.15;;;2.95;;
49826;SDS011;35715;51.570;6.036;2022-09-12T12:18:00;4.60;;;4.20;;
49826;SDS011;35715;51.570;6.036;2022-09-12T12:20:31;3.30;;;3.10;;
49826;SDS011;35715;51.570;6.036;2022-09-12T12:22:57;4.20;;;3.90;;
49826;SDS011;35715;51.570;6.036;2022-09-12T12:25:25;2.70;;;2.50;;
49826;SDS011;35715;51.570;6.036;2022-09-12T12:28:04;12.48;;;5.43;;
49826;SDS011;35715;51.570;6.036;2022-09-12T12:38:47;8.23;;;5.20;;
49826;SDS011;35715;51.570;6.036;2022-09-12T12:43:49;4.47;;;4.15;;
49826;SDS011;35715;51.570;6.036;2022-09-12T12:46:17;5.20;;;4.75;;
49826;SDS011;35715;51.570;6.036;2022-09-12T12:51:35;4.68;;;3.78;;
49826;SDS011;35715;51.570;6.036;2022-09-12T13:00:21;6.75;;;4.90;;
49826;SDS011;35715;51.570;6.036;2022-09-12T13:03:01;4.80;;;4.22;;
49826;SDS011;35715;51.570;6.036;2022-09-12T13:05:41;5.25;;;3.45;;
49826;SDS011;35715;51.570;6.036;2022-09-12T13:10:51;4.82;;;3.55;;
49826;SDS011;35715;51.570;6.036;2022-09-12T13:13:38;10.00;;;4.40;;
49826;SDS011;35715;51.570;6.036;2022-09-12T13:16:10;5.68;;;3.58;;
49826;SDS011;35715;51.570;6.036;2022-09-12T13:18:40;3.80;;;3.55;;
49826;SDS011;35715;51.570;6.036;2022-09-12T13:21:25;3.35;;;2.95;;
49826;SDS011;35715;51.570;6.036;2022-09-12T13:24:00;4.30;;;3.50;;
49826;SDS011;35715;51.570;6.036;2022-09-12T13:26:32;3.50;;;3.30;;
49826;SDS011;35715;51.570;6.036;2022-09-12T13:31:35;4.25;;;3.20;;
49826;SDS011;35715;51.570;6.036;2022-09-12T13:34:03;7.00;;;3.13;;
49826;SDS011;35715;51.570;6.036;2022-09-12T13:36:35;5.40;;;3.30;;
49826;SDS011;35715;51.570;6.036;2022-09-12T13:44:43;5.53;;;2.70;;
49826;SDS011;35715;51.570;6.036;2022-09-12T13:47:13;4.13;;;3.35;;
49826;SDS011;35715;51.570;6.036;2022-09-12T13:49:48;3.28;;;3.05;;
49826;SDS011;35715;51.570;6.036;2022-09-12T13:54:42;2.90;;;2.70;;
49826;SDS011;35715;51.570;6.036;2022-09-12T13:59:58;5.55;;;3.50;;
49826;SDS011;35715;51.570;6.036;2022-09-12T14:02:25;2.65;;;2.45;;
49826;SDS011;35715;51.570;6.036;2022-09-12T14:04:53;3.58;;;2.58;;
49826;SDS011;35715;51.570;6.036;2022-09-12T14:07:53;3.95;;;3.35;;
49826;SDS011;35715;51.570;6.036;2022-09-12T14:10:31;3.38;;;3.08;;
49826;SDS011;35715;51.570;6.036;2022-09-12T14:12:59;3.42;;;3.13;;
49826;SDS011;35715;51.570;6.036;2022-09-12T14:15:30;4.57;;;3.75;;
49826;SDS011;35715;51.570;6.036;2022-09-12T14:17:59;3.40;;;3.10;;
49826;SDS011;35715;51.570;6.036;2022-09-12T14:20:27;3.25;;;3.05;;
49826;SDS011;35715;51.570;6.036;2022-09-12T14:22:58;5.40;;;3.67;;
49826;SDS011;35715;51.570;6.036;2022-09-12T14:25:34;2.80;;;2.60;;
49826;SDS011;35715;51.570;6.036;2022-09-12T14:28:03;2.50;;;2.30;;
49826;SDS011;35715;51.570;6.036;2022-09-12T14:35:35;5.90;;;4.20;;
49826;SDS011;35715;51.570;6.036;2022-09-12T14:38:36;2.75;;;2.55;;
49826;SDS011;35715;51.570;6.036;2022-09-12T14:41:06;3.85;;;3.53;;
49826;SDS011;35715;51.570;6.036;2022-09-12T14:43:34;7.95;;;3.20;;
49826;SDS011;35715;51.570;6.036;2022-09-12T14:46:06;4.10;;;3.80;;
49826;SDS011;35715;51.570;6.036;2022-09-12T14:48:43;8.38;;;3.80;;
49826;SDS011;35715;51.570;6.036;2022-09-12T14:57:04;5.00;;;2.92;;
49826;SDS011;35715;51.570;6.036;2022-09-12T14:59:51;4.72;;;4.30;;
49826;SDS011;35715;51.570;6.036;2022-09-12T15:05:31;9.68;;;3.30;;
49826;SDS011;35715;51.570;6.036;2022-09-12T15:13:11;3.33;;;2.28;;
49826;SDS011;35715;51.570;6.036;2022-09-12T15:15:50;4.13;;;3.80;;
49826;SDS011;35715;51.570;6.036;2022-09-12T15:18:20;3.83;;;3.58;;
49826;SDS011;35715;51.570;6.036;2022-09-12T15:20:55;4.70;;;4.30;;
49826;SDS011;35715;51.570;6.036;2022-09-12T15:23:29;6.07;;;3.83;;
49826;SDS011;35715;51.570;6.036;2022-09-12T15:26:22;6.82;;;3.60;;
49826;SDS011;35715;51.570;6.036;2022-09-12T15:28:51;2.97;;;2.78;;
49826;SDS011;35715;51.570;6.036;2022-09-12T15:31:32;5.00;;;3.85;;
49826;SDS011;35715;51.570;6.036;2022-09-12T15:33:59;3.50;;;3.10;;
49826;SDS011;35715;51.570;6.036;2022-09-12T15:36:26;3.10;;;2.88;;
49826;SDS011;35715;51.570;6.036;2022-09-12T15:38:53;4.00;;;3.65;;
49826;SDS011;35715;51.570;6.036;2022-09-12T15:43:50;5.53;;;3.88;;
49826;SDS011;35715;51.570;6.036;2022-09-12T15:46:16;4.18;;;3.20;;
49826;SDS011;35715;51.570;6.036;2022-09-12T15:48:43;3.33;;;3.03;;
49826;SDS011;35715;51.570;6.036;2022-09-12T15:51:17;3.80;;;3.50;;
49826;SDS011;35715;51.570;6.036;2022-09-12T15:53:44;3.75;;;3.45;;
49826;SDS011;35715;51.570;6.036;2022-09-12T15:56:10;4.32;;;3.92;;
49826;SDS011;35715;51.570;6.036;2022-09-12T15:58:36;7.32;;;3.70;;
49826;SDS011;35715;51.570;6.036;2022-09-12T16:01:04;4.47;;;4.07;;
49826;SDS011;35715;51.570;6.036;2022-09-12T16:03:29;7.47;;;3.58;;
49826;SDS011;35715;51.570;6.036;2022-09-12T16:05:56;5.15;;;3.47;;
49826;SDS011;35715;51.570;6.036;2022-09-12T16:08:23;7.90;;;4.07;;
49826;SDS011;35715;51.570;6.036;2022-09-12T16:10:57;11.00;;;4.05;;
49826;SDS011;35715;51.570;6.036;2022-09-12T16:13:25;4.85;;;4.40;;
49826;SDS011;35715;51.570;6.036;2022-09-12T16:15:51;4.65;;;3.40;;
49826;SDS011;35715;51.570;6.036;2022-09-12T16:18:20;4.25;;;3.42;;
49826;SDS011;35715;51.570;6.036;2022-09-12T16:20:46;7.37;;;3.70;;
49826;SDS011;35715;51.570;6.036;2022-09-12T16:23:15;4.13;;;3.38;;
49826;SDS011;35715;51.570;6.036;2022-09-12T16:25:40;4.20;;;3.05;;
49826;SDS011;35715;51.570;6.036;2022-09-12T16:28:06;5.00;;;3.15;;
49826;SDS011;35715;51.570;6.036;2022-09-12T16:30:35;5.40;;;3.55;;
49826;SDS011;35715;51.570;6.036;2022-09-12T16:33:01;4.22;;;3.10;;
49826;SDS011;35715;51.570;6.036;2022-09-12T16:35:26;5.63;;;3.42;;
49826;SDS011;35715;51.570;6.036;2022-09-12T16:37:52;5.20;;;3.72;;
49826;SDS011;35715;51.570;6.036;2022-09-12T16:40:18;4.70;;;3.50;;
49826;SDS011;35715;51.570;6.036;2022-09-12T16:42:44;3.67;;;3.15;;
49826;SDS011;35715;51.570;6.036;2022-09-12T16:45:10;4.28;;;3.90;;
49826;SDS011;35715;51.570;6.036;2022-09-12T16:47:36;5.53;;;3.17;;
49826;SDS011;35715;51.570;6.036;2022-09-12T16:50:03;3.80;;;3.50;;
49826;SDS011;35715;51.570;6.036;2022-09-12T16:52:29;4.95;;;3.30;;
49826;SDS011;35715;51.570;6.036;2022-09-12T16:54:55;5.40;;;3.90;;
49826;SDS011;35715;51.570;6.036;2022-09-12T16:57:21;3.35;;;3.15;;
49826;SDS011;35715;51.570;6.036;2022-09-12T16:59:59;4.28;;;3.35;;
49826;SDS011;35715;51.570;6.036;2022-09-12T17:02:25;6.43;;;4.13;;
49826;SDS011;35715;51.570;6.036;2022-09-12T17:04:50;11.98;;;4.22;;
49826;SDS011;35715;51.570;6.036;2022-09-12T17:07:16;3.83;;;3.45;;
49826;SDS011;35715;51.570;6.036;2022-09-12T17:09:42;3.30;;;3.00;;
49826;SDS011;35715;51.570;6.036;2022-09-12T17:12:07;4.18;;;3.85;;
49826;SDS011;35715;51.570;6.036;2022-09-12T17:14:33;3.90;;;2.40;;
49826;SDS011;35715;51.570;6.036;2022-09-12T17:16:58;3.10;;;2.80;;
49826;SDS011;35715;51.570;6.036;2022-09-12T17:19:24;3.38;;;3.17;;
49826;SDS011;35715;51.570;6.036;2022-09-12T17:21:53;5.68;;;3.60;;
49826;SDS011;35715;51.570;6.036;2022-09-12T17:24:19;3.80;;;3.40;;
49826;SDS011;35715;51.570;6.036;2022-09-12T17:26:45;5.18;;;3.53;;
49826;SDS011;35715;51.570;6.036;2022-09-12T17:29:10;4.30;;;4.00;;
49826;SDS011;35715;51.570;6.036;2022-09-12T17:34:15;116.28;;;9.10;;
49826;SDS011;35715;51.570;6.036;2022-09-12T17:36:42;3.90;;;3.58;;
49826;SDS011;35715;51.570;6.036;2022-09-12T17:39:09;6.28;;;3.70;;
49826;SDS011;35715;51.570;6.036;2022-09-12T17:41:35;5.20;;;3.85;;
49826;SDS011;35715;51.570;6.036;2022-09-12T17:44:01;5.00;;;3.65;;
49826;SDS011;35715;51.570;6.036;2022-09-12T17:46:34;8.55;;;4.47;;
49826;SDS011;35715;51.570;6.036;2022-09-12T17:49:02;4.22;;;3.63;;
49826;SDS011;35715;51.570;6.036;2022-09-12T17:54:26;4.40;;;4.10;;
49826;SDS011;35715;51.570;6.036;2022-09-12T17:56:51;4.93;;;4.47;;
49826;SDS011;35715;51.570;6.036;2022-09-12T17:59:18;6.43;;;3.88;;
49826;SDS011;35715;51.570;6.036;2022-09-12T18:01:44;6.50;;;4.65;;
49826;SDS011;35715;51.570;6.036;2022-09-12T18:04:28;7.72;;;3.70;;
49826;SDS011;35715;51.570;6.036;2022-09-12T18:06:53;4.30;;;3.90;;
49826;SDS011;35715;51.570;6.036;2022-09-12T18:09:20;4.05;;;3.72;;
49826;SDS011;35715;51.570;6.036;2022-09-12T18:11:47;5.05;;;4.65;;
49826;SDS011;35715;51.570;6.036;2022-09-12T18:14:13;4.88;;;4.55;;
49826;SDS011;35715;51.570;6.036;2022-09-12T18:16:38;6.50;;;4.88;;
49826;SDS011;35715;51.570;6.036;2022-09-12T18:19:04;7.80;;;4.15;;
49826;SDS011;35715;51.570;6.036;2022-09-12T18:21:32;5.22;;;4.20;;
49826;SDS011;35715;51.570;6.036;2022-09-12T18:23:57;8.55;;;4.53;;
49826;SDS011;35715;51.570;6.036;2022-09-12T18:26:23;6.22;;;4.78;;
49826;SDS011;35715;51.570;6.036;2022-09-12T18:28:49;4.93;;;4.22;;
49826;SDS011;35715;51.570;6.036;2022-09-12T18:31:20;6.75;;;4.60;;